Alquina, Indiana
Current Conditions -  °F | °C
As of 5:35 PM on Monday 24 Nov 2014 (Local Time) from KI67 Reporting Station
Overcast Overcast  
Wind Chill: 40°   Ceiling: 3700
Heat Index: 45°   Visibility: 10mi
Dew Point: 32°   Wind: 9mph
Humidity: 61%   Direction: 240°WSW
Pressure: 29.77"   Gusts: 23mph
Location:  39.645°N, 85.1744°W
Report Text: KI67 242235Z AUTO 24008G20KT 10SM BKN037 OVC045 07/00 A2977 RMK AO1
Loading
Personal Weather Stations






























Interactive Weather Map New forecast layout! Learn more

10-Day Weather Forecast

Advertisements
Track Severe Weather on mobile